Time;durP1;ratioP1;P1;durP2;ratioP2;P2;SDS_P1;SDS_P2;PMS_P1;PMS_P2;Temp;Humidity;BMP_temperature;BMP_pressure;BME280_temperature;BME280_humidity;BME280_pressure;Samples;Min_cycle;Max_cycle;Signal;HPM_P1;HPM_P2
2023/01/21 00:00:04;;;;;;;2.92;2.35;;;;;;;;;;4958008;28;20102;-90
2023/01/21 00:02:31;;;;;;;2.08;1.98;;;;;;;;;;4958130;28;20130;-89
2023/01/21 00:04:57;;;;;;;2.08;1.98;;;;;;;;;;4957885;28;20769;-89
2023/01/21 00:07:24;;;;;;;2.10;1.95;;;;;;;;;;4957929;28;20394;-89
2023/01/21 00:09:51;;;;;;;1.50;1.45;;;;;;;;;;4958067;28;20497;-91
2023/01/21 00:12:17;;;;;;;1.27;1.20;;;;;;;;;;4957438;28;20098;-91
2023/01/21 00:14:44;;;;;;;2.25;2.13;;;;;;;;;;4958595;28;20070;-90
2023/01/21 00:17:12;;;;;;;1.40;1.30;;;;;;;;;;4958121;28;20048;-90
2023/01/21 00:19:39;;;;;;;2.03;1.92;;;;;;;;;;4964447;28;20051;-89
2023/01/21 00:22:05;;;;;;;2.35;2.25;;;;;;;;;;4957902;28;20472;-90
2023/01/21 00:24:32;;;;;;;0.65;0.65;;;;;;;;;;4957420;28;20106;-88
2023/01/21 00:26:58;;;;;;;1.15;1.15;;;;;;;;;;4957669;28;20421;-89
2023/01/21 00:29:25;;;;;;;1.50;1.40;;;;;;;;;;4957740;28;20059;-90
2023/01/21 00:31:51;;;;;;;1.95;1.85;;;;;;;;;;4959126;28;20091;-89
2023/01/21 00:34:19;;;;;;;1.52;1.42;;;;;;;;;;4956977;28;20050;-89
2023/01/21 00:36:46;;;;;;;2.28;1.98;;;;;;;;;;4957712;28;20565;-91
2023/01/21 00:39:12;;;;;;;1.63;1.52;;;;;;;;;;4957452;28;20047;-91
2023/01/21 00:41:39;;;;;;;1.52;1.42;;;;;;;;;;4957512;28;20489;-91
2023/01/21 00:44:05;;;;;;;1.73;1.63;;;;;;;;;;4957591;28;20047;-91
2023/01/21 00:46:32;;;;;;;1.85;1.75;;;;;;;;;;4957668;28;20106;-91
2023/01/21 00:48:59;;;;;;;1.67;1.58;;;;;;;;;;4957992;28;20106;-91
2023/01/21 00:51:27;;;;;;;1.02;1.02;;;;;;;;;;4958691;28;20091;-91
2023/01/21 00:53:54;;;;;;;1.15;1.15;;;;;;;;;;4962922;28;20134;-91
2023/01/21 00:56:20;;;;;;;1.88;1.77;;;;;;;;;;4958732;28;20457;-90
2023/01/21 00:58:47;;;;;;;1.38;1.27;;;;;;;;;;4957131;28;20051;-91
2023/01/21 01:01:14;;;;;;;2.85;2.75;;;;;;;;;;4957976;28;20096;-90
2023/01/21 01:03:41;;;;;;;1.33;1.23;;;;;;;;;;4958093;28;20051;-91
2023/01/21 01:06:08;;;;;;;0.63;0.63;;;;;;;;;;4957960;28;20059;-89
2023/01/21 01:08:36;;;;;;;1.48;1.38;;;;;;;;;;4958082;28;20433;-90
2023/01/21 01:11:03;;;;;;;4.05;3.85;;;;;;;;;;4957147;28;20058;-89
2023/01/21 01:13:30;;;;;;;1.75;1.65;;;;;;;;;;4956801;28;20055;-90
2023/01/21 01:18:33;;;;;;;1.17;1.17;;;;;;;;;;5102125;23;20515;-90
2023/01/21 01:21:00;;;;;;;8.75;1.70;;;;;;;;;;5014521;28;20466;-91
2023/01/21 01:23:27;;;;;;;1.48;1.38;;;;;;;;;;5014806;28;20454;-89
2023/01/21 01:25:58;;;;;;;0.75;0.75;;;;;;;;;;5015730;28;20050;-91
2023/01/21 01:28:25;;;;;;;1.65;1.35;;;;;;;;;;5015546;28;20060;-95
2023/01/21 01:30:52;;;;;;;2.72;2.58;;;;;;;;;;5017675;28;20045;-90
2023/01/21 01:33:19;;;;;;;1.40;1.30;;;;;;;;;;5021172;28;20042;-90
2023/01/21 01:35:46;;;;;;;1.67;1.52;;;;;;;;;;5015154;28;20046;-90
2023/01/21 01:38:13;;;;;;;1.58;1.48;;;;;;;;;;5017147;28;20050;-90
2023/01/21 01:40:40;;;;;;;0.85;0.85;;;;;;;;;;5019787;28;20393;-90
2023/01/21 01:43:12;;;;;;;0.88;0.88;;;;;;;;;;5014681;28;20499;-90
2023/01/21 01:45:38;;;;;;;2.28;2.17;;;;;;;;;;5011914;28;20049;-89
2023/01/21 01:48:05;;;;;;;1.27;1.23;;;;;;;;;;5015252;28;20050;-90
2023/01/21 01:50:33;;;;;;;1.48;1.40;;;;;;;;;;5015250;28;20097;-91
2023/01/21 01:53:00;;;;;;;1.75;1.65;;;;;;;;;;5015371;28;20073;-89
2023/01/21 01:55:28;;;;;;;1.92;1.83;;;;;;;;;;5015607;28;20046;-90
2023/01/21 01:57:55;;;;;;;0.88;0.80;;;;;;;;;;5014515;28;20474;-90
2023/01/21 02:00:23;;;;;;;2.65;2.45;;;;;;;;;;5014821;28;20112;-90
2023/01/21 02:05:31;;;;;;;1.02;1.02;;;;;;;;;;5014573;28;20401;-91
2023/01/21 02:07:57;;;;;;;1.95;1.85;;;;;;;;;;5014820;28;20518;-90
2023/01/21 02:10:24;;;;;;;1.02;1.02;;;;;;;;;;5014966;28;20046;-91
2023/01/21 02:12:50;;;;;;;4.03;3.65;;;;;;;;;;5014385;28;20488;-91
2023/01/21 02:15:17;;;;;;;1.80;1.70;;;;;;;;;;5014208;28;20455;-90
2023/01/21 02:17:52;;;;;;;9.30;1.98;;;;;;;;;;5014136;28;20103;-89
2023/01/21 02:20:26;;;;;;;0.95;0.95;;;;;;;;;;5013798;28;20049;-89
2023/01/21 02:22:57;;;;;;;2.35;2.25;;;;;;;;;;5014323;28;20679;-90
2023/01/21 02:25:41;;;;;;;1.90;1.80;;;;;;;;;;5014609;28;20459;-92
2023/01/21 02:28:25;;;;;;;1.98;1.73;;;;;;;;;;5014304;28;20058;-92
2023/01/21 02:31:10;;;;;;;2.75;2.55;;;;;;;;;;5014434;28;20045;-91
2023/01/21 02:33:46;;;;;;;1.90;1.80;;;;;;;;;;5014183;28;20527;-90
2023/01/21 02:36:40;;;;;;;1.85;1.75;;;;;;;;;;5016206;28;20046;-91
2023/01/21 02:39:12;;;;;;;1.67;1.58;;;;;;;;;;4937912;29;20051;-91
2023/01/21 02:41:44;;;;;;;1.50;1.42;;;;;;;;;;4938421;29;20059;-89
2023/01/21 02:44:13;;;;;;;3.78;1.98;;;;;;;;;;4938526;29;20130;-90
2023/01/21 02:46:42;;;;;;;1.58;1.48;;;;;;;;;;4938524;29;20052;-91
2023/01/21 02:49:14;;;;;;;2.38;2.17;;;;;;;;;;4940936;29;20161;-90
2023/01/21 02:51:45;;;;;;;1.20;1.15;;;;;;;;;;4939618;29;20523;-89
2023/01/21 02:54:15;;;;;;;1.30;1.20;;;;;;;;;;4938201;29;20048;-89
2023/01/21 02:56:42;;;;;;;3.00;2.80;;;;;;;;;;4929429;29;20052;-90
2023/01/21 02:59:09;;;;;;;2.10;1.92;;;;;;;;;;4919572;29;20051;-90
2023/01/21 03:01:39;;;;;;;2.45;2.35;;;;;;;;;;4919290;29;20562;-90
2023/01/21 03:04:18;;;;;;;0.68;0.68;;;;;;;;;;4919363;29;20258;-91
2023/01/21 03:06:50;;;;;;;2.08;1.88;;;;;;;;;;4918872;29;20407;-92
2023/01/21 03:09:21;;;;;;;3.72;3.10;;;;;;;;;;4919170;29;20103;-92
2023/01/21 03:11:53;;;;;;;2.97;2.78;;;;;;;;;;4919098;29;20051;-91
2023/01/21 03:17:08;;;;;;;1.40;1.33;;;;;;;;;;4998036;28;20065;-91
2023/01/21 03:19:38;;;;;;;2.03;1.92;;;;;;;;;;4998334;28;20054;-90
2023/01/21 03:22:07;;;;;;;2.15;2.05;;;;;;;;;;4998572;28;20054;-91
2023/01/21 03:24:35;;;;;;;2.15;2.05;;;;;;;;;;4997862;28;20050;-91
2023/01/21 03:27:02;;;;;;;1.40;1.38;;;;;;;;;;4998807;28;20054;-92
2023/01/21 03:29:30;;;;;;;1.48;1.45;;;;;;;;;;4997851;28;20101;-91
2023/01/21 03:31:58;;;;;;;1.80;1.50;;;;;;;;;;4997943;28;20067;-91
2023/01/21 03:34:27;;;;;;;3.83;3.53;;;;;;;;;;4998206;28;20579;-91
2023/01/21 03:36:57;;;;;;;1.67;1.60;;;;;;;;;;4997988;28;20456;-91
2023/01/21 03:39:27;;;;;;;3.80;3.60;;;;;;;;;;4998941;28;20455;-91
2023/01/21 03:41:53;;;;;;;2.65;2.42;;;;;;;;;;4999264;28;20051;-92
2023/01/21 03:44:20;;;;;;;2.05;1.95;;;;;;;;;;4998020;28;20079;-92
2023/01/21 03:46:49;;;;;;;1.83;1.73;;;;;;;;;;4997356;28;20047;-91
2023/01/21 03:49:18;;;;;;;3.35;3.05;;;;;;;;;;5014576;28;20050;-91
2023/01/21 03:51:48;;;;;;;2.58;2.40;;;;;;;;;;5017061;28;20128;-91
2023/01/21 03:54:16;;;;;;;3.15;2.95;;;;;;;;;;5012586;28;20550;-91
2023/01/21 03:56:42;;;;;;;1.17;1.17;;;;;;;;;;4997629;28;20057;-91
2023/01/21 03:59:09;;;;;;;1.23;1.20;;;;;;;;;;4997707;28;20050;-92
2023/01/21 04:01:35;;;;;;;2.55;2.35;;;;;;;;;;4997326;28;20495;-92
2023/01/21 04:04:02;;;;;;;0.80;0.80;;;;;;;;;;4997899;28;20058;-91
2023/01/21 04:06:28;;;;;;;3.20;2.47;;;;;;;;;;5009609;28;20049;-91
2023/01/21 04:08:55;;;;;;;2.53;2.38;;;;;;;;;;5017054;28;20057;-92
2023/01/21 04:11:22;;;;;;;1.25;1.20;;;;;;;;;;5016538;28;20046;-91
2023/01/21 04:13:49;;;;;;;1.95;1.80;;;;;;;;;;5017087;28;20054;-91
2023/01/21 04:16:16;;;;;;;2.97;2.85;;;;;;;;;;5016659;28;20545;-92
2023/01/21 04:18:42;;;;;;;2.25;2.15;;;;;;;;;;5017554;28;20447;-92
2023/01/21 04:21:09;;;;;;;1.95;1.85;;;;;;;;;;5016706;28;20042;-92
2023/01/21 04:23:36;;;;;;;0.80;0.80;;;;;;;;;;5006907;28;20206;-90
2023/01/21 04:26:02;;;;;;;1.00;1.00;;;;;;;;;;4996590;28;20050;-89
2023/01/21 04:28:30;;;;;;;0.80;0.80;;;;;;;;;;4996942;28;20162;-90
2023/01/21 04:30:57;;;;;;;1.40;1.33;;;;;;;;;;4996767;28;20046;-90
2023/01/21 04:33:23;;;;;;;2.15;2.05;;;;;;;;;;4996842;28;20042;-90
2023/01/21 04:35:50;;;;;;;4.45;3.85;;;;;;;;;;5087100;23;20057;-88
2023/01/21 04:38:16;;;;;;;3.05;2.90;;;;;;;;;;5034771;28;20054;-90
2023/01/21 04:40:43;;;;;;;2.40;2.20;;;;;;;;;;5036010;28;20045;-89
2023/01/21 04:43:09;;;;;;;4.63;4.40;;;;;;;;;;5036192;28;20061;-88
2023/01/21 04:45:37;;;;;;;4.80;2.72;;;;;;;;;;5035850;28;20553;-89
2023/01/21 04:48:04;;;;;;;2.13;2.03;;;;;;;;;;5035707;28;20557;-89
2023/01/21 04:50:30;;;;;;;1.40;1.30;;;;;;;;;;5041110;28;20046;-88
2023/01/21 04:52:57;;;;;;;0.85;0.85;;;;;;;;;;5044402;28;20050;-88
2023/01/21 04:55:23;;;;;;;2.08;1.95;;;;;;;;;;5042333;28;20457;-88
2023/01/21 04:57:50;;;;;;;1.50;1.45;;;;;;;;;;5043390;28;20050;-88
2023/01/21 05:00:17;;;;;;;1.30;1.20;;;;;;;;;;5040802;28;20045;-89
2023/01/21 05:02:44;;;;;;;0.95;0.70;;;;;;;;;;5034978;28;20045;-88
2023/01/21 05:05:11;;;;;;;1.05;1.05;;;;;;;;;;5035206;28;20050;-88
2023/01/21 05:07:37;;;;;;;2.10;2.00;;;;;;;;;;5035704;28;20103;-88
2023/01/21 05:10:04;;;;;;;0.98;0.98;;;;;;;;;;5035694;28;20402;-89
2023/01/21 05:12:31;;;;;;;1.85;1.75;;;;;;;;;;5036043;28;20096;-92
2023/01/21 05:14:57;;;;;;;1.30;1.30;;;;;;;;;;5036035;28;20057;-90
2023/01/21 05:17:24;;;;;;;0.75;0.75;;;;;;;;;;5036626;28;20046;-92
2023/01/21 05:19:52;;;;;;;1.13;1.10;;;;;;;;;;5034845;28;20050;-90
2023/01/21 05:22:18;;;;;;;1.60;1.55;;;;;;;;;;5035145;28;20148;-89
2023/01/21 05:24:45;;;;;;;1.00;1.00;;;;;;;;;;5034458;28;20104;-90
2023/01/21 05:27:11;;;;;;;2.50;2.35;;;;;;;;;;5034600;28;20411;-91
2023/01/21 05:29:38;;;;;;;1.80;1.70;;;;;;;;;;5034655;28;20095;-91
2023/01/21 05:32:05;;;;;;;2.33;2.22;;;;;;;;;;5019546;28;20049;-93
2023/01/21 05:34:31;;;;;;;1.90;1.80;;;;;;;;;;5015373;28;20496;-93
2023/01/21 05:36:59;;;;;;;0.95;0.95;;;;;;;;;;5015427;28;20108;-92
2023/01/21 05:39:26;;;;;;;1.15;1.02;;;;;;;;;;5015212;28;20103;-94
2023/01/21 05:41:52;;;;;;;1.50;1.40;;;;;;;;;;5015105;28;20104;-91
2023/01/21 05:44:19;;;;;;;1.88;1.77;;;;;;;;;;5014734;28;20057;-91
2023/01/21 05:46:45;;;;;;;8.80;1.92;;;;;;;;;;5014854;28;20097;-91
2023/01/21 05:49:12;;;;;;;1.63;1.52;;;;;;;;;;5032105;28;20694;-91
2023/01/21 05:51:38;;;;;;;0.75;0.75;;;;;;;;;;5033713;28;20434;-90
2023/01/21 05:54:06;;;;;;;1.05;1.02;;;;;;;;;;5034633;28;20049;-91
2023/01/21 05:56:33;;;;;;;1.52;1.42;;;;;;;;;;5034465;28;20076;-91
2023/01/21 05:59:00;;;;;;;1.20;1.20;;;;;;;;;;5035072;28;20049;-92
2023/01/21 06:01:27;;;;;;;1.38;1.38;;;;;;;;;;5035048;28;20045;-92
2023/01/21 06:03:54;;;;;;;1.45;1.27;;;;;;;;;;5027392;28;20050;-90
2023/01/21 06:06:20;;;;;;;1.35;1.27;;;;;;;;;;5027699;28;20053;-88
2023/01/21 06:08:47;;;;;;;1.85;1.17;;;;;;;;;;5033725;28;20561;-89
2023/01/21 06:11:15;;;;;;;1.23;1.23;;;;;;;;;;5033067;28;20041;-89
2023/01/21 06:13:41;;;;;;;1.20;1.20;;;;;;;;;;5034585;28;20453;-91
2023/01/21 06:16:08;;;;;;;1.17;1.17;;;;;;;;;;5034030;28;20499;-88
2023/01/21 06:18:34;;;;;;;2.83;2.45;;;;;;;;;;5034089;28;20049;-89
2023/01/21 06:21:01;;;;;;;2.78;2.45;;;;;;;;;;5033312;28;20055;-91
2023/01/21 06:23:28;;;;;;;1.83;1.73;;;;;;;;;;5032193;28;20049;-90
2023/01/21 06:25:58;;;;;;;1.75;1.65;;;;;;;;;;5033747;28;20557;-90
2023/01/21 06:28:27;;;;;;;1.83;1.73;;;;;;;;;;5034886;28;20053;-93
2023/01/21 06:30:53;;;;;;;1.58;1.48;;;;;;;;;;5034365;28;20552;-94
2023/01/21 06:33:21;;;;;;;2.15;2.05;;;;;;;;;;5034305;28;20745;-89
2023/01/21 06:35:48;;;;;;;1.50;1.42;;;;;;;;;;5033886;28;20057;-89
2023/01/21 06:38:14;;;;;;;1.60;1.50;;;;;;;;;;5021865;28;20050;-89
2023/01/21 06:40:41;;;;;;;1.50;1.40;;;;;;;;;;5033404;28;20069;-91
2023/01/21 06:43:07;;;;;;;1.92;1.83;;;;;;;;;;5033716;28;20049;-90
2023/01/21 06:45:35;;;;;;;1.65;1.55;;;;;;;;;;5038407;28;20049;-90
2023/01/21 06:48:02;;;;;;;1.60;1.58;;;;;;;;;;5042293;28;20638;-88
2023/01/21 06:50:28;;;;;;;1.45;1.35;;;;;;;;;;5033789;28;20072;-91
2023/01/21 06:52:55;;;;;;;1.20;1.20;;;;;;;;;;5033927;28;20167;-89
2023/01/21 06:55:21;;;;;;;0.65;0.65;;;;;;;;;;5034103;28;20054;-90
2023/01/21 06:57:48;;;;;;;1.17;1.17;;;;;;;;;;5032632;28;20084;-91
2023/01/21 07:00:15;;;;;;;1.90;1.80;;;;;;;;;;5033827;28;20049;-90
2023/01/21 07:02:43;;;;;;;1.88;1.75;;;;;;;;;;5033787;28;20100;-90
2023/01/21 07:05:09;;;;;;;2.08;1.88;;;;;;;;;;5034846;28;20045;-91
2023/01/21 07:07:36;;;;;;;0.93;0.93;;;;;;;;;;5034957;28;20458;-91
2023/01/21 07:10:03;;;;;;;1.38;1.38;;;;;;;;;;5035989;28;20103;-91
2023/01/21 07:12:29;;;;;;;1.55;1.52;;;;;;;;;;5034995;28;20041;-92
2023/01/21 07:14:56;;;;;;;1.52;1.42;;;;;;;;;;5035431;28;20388;-89
2023/01/21 07:17:22;;;;;;;1.13;1.13;;;;;;;;;;5034056;28;20111;-90
2023/01/21 07:19:50;;;;;;;1.85;1.75;;;;;;;;;;5034092;28;20554;-91
2023/01/21 07:22:17;;;;;;;5.07;4.57;;;;;;;;;;5035723;28;20096;-90
2023/01/21 07:24:43;;;;;;;1.58;1.48;;;;;;;;;;5037894;28;20099;-92
2023/01/21 07:27:10;;;;;;;1.35;1.25;;;;;;;;;;5037578;28;20049;-90
2023/01/21 07:29:36;;;;;;;1.50;1.40;;;;;;;;;;5037027;28;20140;-91
2023/01/21 07:32:03;;;;;;;1.48;1.38;;;;;;;;;;5037863;28;20049;-92
2023/01/21 07:34:29;;;;;;;0.90;0.90;;;;;;;;;;5037721;28;20120;-94
2023/01/21 07:36:57;;;;;;;1.65;1.55;;;;;;;;;;5035119;28;20535;-91
2023/01/21 07:39:24;;;;;;;1.88;1.77;;;;;;;;;;5017301;28;20096;-91
2023/01/21 07:41:50;;;;;;;1.55;1.45;;;;;;;;;;5017065;28;20049;-93
2023/01/21 07:44:17;;;;;;;2.78;2.67;;;;;;;;;;5017693;28;20061;-92
2023/01/21 07:46:43;;;;;;;1.60;1.55;;;;;;;;;;5017789;28;20053;-91
2023/01/21 07:49:15;;;;;;;1.70;1.60;;;;;;;;;;5017546;28;20045;-91
2023/01/21 07:51:42;;;;;;;1.58;1.48;;;;;;;;;;5017886;28;20132;-90
2023/01/21 07:54:11;;;;;;;1.63;1.52;;;;;;;;;;5022695;28;20042;-92
2023/01/21 07:56:37;;;;;;;1.10;1.10;;;;;;;;;;5018302;28;20057;-91
2023/01/21 07:59:04;;;;;;;1.00;1.00;;;;;;;;;;5017817;28;20053;-91
2023/01/21 08:01:31;;;;;;;1.83;1.73;;;;;;;;;;5020248;28;20041;-90
2023/01/21 08:03:57;;;;;;;2.13;2.03;;;;;;;;;;5016961;28;20303;-91
2023/01/21 08:06:24;;;;;;;2.15;1.95;;;;;;;;;;5017339;28;20054;-92
2023/01/21 08:08:50;;;;;;;1.38;1.38;;;;;;;;;;5017467;28;20384;-91
2023/01/21 08:11:18;;;;;;;2.08;1.98;;;;;;;;;;5016822;28;20050;-92
2023/01/21 08:13:45;;;;;;;1.67;1.58;;;;;;;;;;5023656;28;20081;-91
2023/01/21 08:16:12;;;;;;;1.05;1.05;;;;;;;;;;5036667;28;20072;-92
2023/01/21 08:18:38;;;;;;;1.02;1.02;;;;;;;;;;5036622;28;20490;-93
2023/01/21 08:21:05;;;;;;;1.35;1.25;;;;;;;;;;5037636;28;20049;-93
2023/01/21 08:23:32;;;;;;;2.13;2.03;;;;;;;;;;5037325;28;20050;-93
2023/01/21 08:26:01;;;;;;;2.17;2.08;;;;;;;;;;5030790;28;20462;-93
2023/01/21 08:28:29;;;;;;;1.13;1.13;;;;;;;;;;5017178;28;20470;-92
2023/01/21 08:31:02;;;;;;;1.55;1.52;;;;;;;;;;5016403;28;20542;-91
2023/01/21 08:33:28;;;;;;;1.05;1.05;;;;;;;;;;5015967;28;20058;-91
2023/01/21 08:35:58;;;;;;;5.82;3.45;;;;;;;;;;5016248;28;20096;-92
2023/01/21 08:38:25;;;;;;;1.00;1.00;;;;;;;;;;5015934;28;20045;-92
2023/01/21 08:40:51;;;;;;;1.65;1.55;;;;;;;;;;5016660;28;20050;-91
2023/01/21 08:43:18;;;;;;;1.80;1.70;;;;;;;;;;5017669;28;20054;-93
2023/01/21 08:45:46;;;;;;;1.35;1.35;;;;;;;;;;5017948;28;20108;-90
2023/01/21 08:48:13;;;;;;;1.10;1.10;;;;;;;;;;5018523;28;20056;-89
2023/01/21 08:50:39;;;;;;;2.20;2.08;;;;;;;;;;5016300;28;20721;-89
2023/01/21 08:53:06;;;;;;;1.50;1.45;;;;;;;;;;5015959;28;20053;-89
2023/01/21 08:55:32;;;;;;;2.35;2.25;;;;;;;;;;5015968;28;20049;-92
2023/01/21 08:57:59;;;;;;;2.40;2.30;;;;;;;;;;5016677;28;20054;-90
2023/01/21 09:00:26;;;;;;;2.15;2.05;;;;;;;;;;5016679;28;20050;-90
2023/01/21 09:02:54;;;;;;;1.88;1.77;;;;;;;;;;5035615;28;20053;-90
2023/01/21 09:05:21;;;;;;;2.63;2.53;;;;;;;;;;5038453;28;20045;-91
2023/01/21 09:07:47;;;;;;;2.28;2.17;;;;;;;;;;5035668;28;20049;-91
2023/01/21 09:10:59;;;;;;;1.77;1.67;;;;;;;;;;5036823;28;20068;-92
2023/01/21 09:13:03;;;;;;;1.77;1.67;;;;;;;;;;5035622;28;20072;-92
2023/01/21 09:15:30;;;;;;;2.55;2.45;;;;;;;;;;5035635;28;20052;-92
2023/01/21 09:17:58;;;;;;;2.85;2.72;;;;;;;;;;5034954;28;20552;-91
2023/01/21 09:20:24;;;;;;;1.98;1.88;;;;;;;;;;5033561;28;20048;-90
2023/01/21 09:22:51;;;;;;;1.60;1.58;;;;;;;;;;5034958;28;20176;-91
2023/01/21 09:25:18;;;;;;;2.15;2.05;;;;;;;;;;5035825;28;20049;-91
2023/01/21 09:27:44;;;;;;;2.05;1.95;;;;;;;;;;5032226;28;20050;-91
2023/01/21 09:30:11;;;;;;;1.60;1.50;;;;;;;;;;5035184;28;20129;-92
2023/01/21 09:32:38;;;;;;;2.45;2.35;;;;;;;;;;5035871;28;20053;-92
2023/01/21 09:35:07;;;;;;;2.75;2.65;;;;;;;;;;5035647;28;20046;-90
2023/01/21 09:37:33;;;;;;;1.85;1.75;;;;;;;;;;5036114;28;20053;-90
2023/01/21 09:40:00;;;;;;;2.58;2.38;;;;;;;;;;5035584;28;20119;-89
2023/01/21 09:42:28;;;;;;;2.03;1.92;;;;;;;;;;5035694;28;20046;-90
2023/01/21 09:44:56;;;;;;;2.90;2.80;;;;;;;;;;5013927;28;20057;-91
2023/01/21 09:47:25;;;;;;;2.20;2.10;;;;;;;;;;5015953;28;20049;-92
2023/01/21 09:49:53;;;;;;;3.25;3.15;;;;;;;;;;5014506;28;20642;-87
2023/01/21 09:52:25;;;;;;;2.63;2.53;;;;;;;;;;5014045;28;20045;-86
2023/01/21 09:54:52;;;;;;;1.75;1.55;;;;;;;;;;5014419;28;20462;-90
2023/01/21 09:57:31;;;;;;;2.70;2.22;;;;;;;;;;5015797;28;20054;-90
2023/01/21 10:00:04;;;;;;;2.70;2.60;;;;;;;;;;5015555;28;20634;-91
2023/01/21 10:02:35;;;;;;;2.05;1.95;;;;;;;;;;5015714;28;20077;-92
2023/01/21 10:05:11;;;;;;;2.42;2.33;;;;;;;;;;5016296;28;20111;-92
2023/01/21 10:07:45;;;;;;;2.58;2.47;;;;;;;;;;5015025;28;20496;-91
2023/01/21 10:10:15;;;;;;;2.97;2.88;;;;;;;;;;5015917;28;20116;-89
2023/01/21 10:12:54;;;;;;;2.58;2.47;;;;;;;;;;5015835;28;20050;-90
2023/01/21 10:15:30;;;;;;;2.35;2.20;;;;;;;;;;5015620;28;20049;-91
2023/01/21 10:17:58;;;;;;;3.50;2.83;;;;;;;;;;5016226;28;20054;-91
2023/01/21 10:20:26;;;;;;;2.10;2.00;;;;;;;;;;5019924;28;20096;-92
2023/01/21 10:22:57;;;;;;;4.80;3.30;;;;;;;;;;5015675;28;20046;-91
2023/01/21 10:25:26;;;;;;;2.47;2.38;;;;;;;;;;5015184;28;20046;-92
2023/01/21 10:27:53;;;;;;;2.25;2.15;;;;;;;;;;5015073;28;20054;-92
2023/01/21 10:30:24;;;;;;;3.40;2.70;;;;;;;;;;5014907;28;20057;-91
2023/01/21 10:32:51;;;;;;;2.85;2.75;;;;;;;;;;5014310;28;20098;-91
2023/01/21 10:35:18;;;;;;;2.67;2.58;;;;;;;;;;5014149;28;20148;-91
2023/01/21 10:37:47;;;;;;;2.75;2.65;;;;;;;;;;5014453;28;20061;-90
2023/01/21 10:40:41;;;;;;;1.90;1.80;;;;;;;;;;5014501;28;20104;-90
2023/01/21 10:43:10;;;;;;;2.28;2.17;;;;;;;;;;5015313;28;20201;-91
2023/01/21 10:45:40;;;;;;;2.35;2.25;;;;;;;;;;5014273;28;20093;-91
2023/01/21 10:48:11;;;;;;;2.97;2.88;;;;;;;;;;5014822;28;20103;-91
2023/01/21 10:50:45;;;;;;;2.53;2.42;;;;;;;;;;5011944;28;20054;-90
2023/01/21 10:53:18;;;;;;;2.53;2.42;;;;;;;;;;5016429;28;20050;-90
2023/01/21 10:56:00;;;;;;;4.78;2.67;;;;;;;;;;5015792;28;20042;-90
2023/01/21 10:58:28;;;;;;;3.10;3.00;;;;;;;;;;5018805;28;20104;-90
2023/01/21 11:00:57;;;;;;;2.78;2.67;;;;;;;;;;5018788;28;20112;-90
2023/01/21 11:03:31;;;;;;;3.22;3.05;;;;;;;;;;5019250;28;20049;-91
2023/01/21 11:05:59;;;;;;;2.08;1.98;;;;;;;;;;5019057;28;20046;-91
2023/01/21 11:08:27;;;;;;;6.53;3.47;;;;;;;;;;4999646;28;20046;-91
2023/01/21 11:10:54;;;;;;;2.28;2.17;;;;;;;;;;4999433;28;20109;-90
2023/01/21 11:13:23;;;;;;;2.40;2.30;;;;;;;;;;4998679;28;20101;-89
2023/01/21 11:15:51;;;;;;;2.30;2.20;;;;;;;;;;4998578;28;20124;-90
2023/01/21 11:18:28;;;;;;;2.72;2.63;;;;;;;;;;4998553;28;20435;-89
2023/01/21 11:20:54;;;;;;;;;;;;;;;;;;4998561;28;20073;-88
2023/01/21 11:23:26;;;;;;;3.10;2.97;;;;;;;;;;5009689;28;19983;-88
2023/01/21 11:26:00;;;;;;;4.68;4.35;;;;;;;;;;5019084;28;20468;-88
2023/01/21 11:28:29;;;;;;;2.45;2.35;;;;;;;;;;5018833;28;20061;-89
2023/01/21 11:31:05;;;;;;;2.03;1.92;;;;;;;;;;5018969;28;20144;-88
2023/01/21 11:33:33;;;;;;;1.92;1.83;;;;;;;;;;5019340;28;20092;-89
2023/01/21 11:36:09;;;;;;;3.00;2.90;;;;;;;;;;5017262;28;20103;-90
2023/01/21 11:38:36;;;;;;;3.30;3.20;;;;;;;;;;5017306;28;20053;-89
2023/01/21 11:41:03;;;;;;;1.85;1.75;;;;;;;;;;5017082;28;20054;-88
2023/01/21 11:43:35;;;;;;;3.67;3.38;;;;;;;;;;5017289;28;20049;-88
2023/01/21 11:46:20;;;;;;;2.72;2.63;;;;;;;;;;5017010;28;20049;-90
2023/01/21 11:48:46;;;;;;;2.33;2.20;;;;;;;;;;5020012;28;20137;-89
2023/01/21 11:51:13;;;;;;;1.98;1.88;;;;;;;;;;5018381;28;20049;-89
2023/01/21 11:53:41;;;;;;;2.78;2.67;;;;;;;;;;5017070;28;20046;-89
2023/01/21 11:56:07;;;;;;;3.90;3.65;;;;;;;;;;5018615;28;20089;-90
2023/01/21 11:58:36;;;;;;;3.05;2.85;;;;;;;;;;5000318;28;20132;-89
2023/01/21 12:01:05;;;;;;;2.35;2.25;;;;;;;;;;4998051;28;20495;-89
2023/01/21 12:03:34;;;;;;;3.25;3.05;;;;;;;;;;4997637;28;20054;-88
2023/01/21 12:06:01;;;;;;;3.25;3.05;;;;;;;;;;4998952;28;20101;-88
2023/01/21 12:08:30;;;;;;;3.75;3.55;;;;;;;;;;5018342;28;20549;-89
2023/01/21 12:11:00;;;;;;;3.35;3.25;;;;;;;;;;5037613;28;20545;-90
2023/01/21 12:13:30;;;;;;;2.88;2.67;;;;;;;;;;5036746;28;20483;-90
2023/01/21 12:16:21;;;;;;;2.38;2.22;;;;;;;;;;5036868;28;20049;-90
2023/01/21 12:18:58;;;;;;;3.28;3.17;;;;;;;;;;5037485;28;20053;-90
2023/01/21 12:21:29;;;;;;;2.22;2.13;;;;;;;;;;5036560;28;20057;-90
2023/01/21 12:24:03;;;;;;;2.13;2.03;;;;;;;;;;5036098;28;20045;-90
2023/01/21 12:26:34;;;;;;;3.85;3.55;;;;;;;;;;5036662;28;20057;-90
2023/01/21 12:29:21;;;;;;;2.70;2.55;;;;;;;;;;5036353;28;20053;-89
2023/01/21 12:31:53;;;;;;;2.88;2.75;;;;;;;;;;5036232;28;20103;-88
2023/01/21 12:34:21;;;;;;;2.88;2.78;;;;;;;;;;5036214;28;20041;-89
2023/01/21 12:36:49;;;;;;;2.25;2.15;;;;;;;;;;5036674;28;20053;-89
2023/01/21 12:39:21;;;;;;;1.70;1.60;;;;;;;;;;5036285;28;20671;-90
2023/01/21 12:41:50;;;;;;;2.67;2.58;;;;;;;;;;5036330;28;20049;-89
2023/01/21 12:44:22;;;;;;;3.20;3.05;;;;;;;;;;5036508;28;20053;-89
2023/01/21 12:46:51;;;;;;;2.25;2.15;;;;;;;;;;5039391;28;20128;-89
2023/01/21 12:49:22;;;;;;;2.67;2.47;;;;;;;;;;5037598;28;20127;-89
2023/01/21 12:51:50;;;;;;;2.85;2.65;;;;;;;;;;5036579;28;20045;-90
2023/01/21 12:54:20;;;;;;;3.13;2.92;;;;;;;;;;5042111;28;20469;-89
2023/01/21 12:56:50;;;;;;;3.05;2.95;;;;;;;;;;5038714;28;20045;-89
2023/01/21 12:59:18;;;;;;;3.78;3.47;;;;;;;;;;5036444;28;20127;-89
2023/01/21 13:01:48;;;;;;;2.85;2.65;;;;;;;;;;5036026;28;20046;-89
2023/01/21 13:04:24;;;;;;;2.85;2.70;;;;;;;;;;5037400;28;20138;-89
2023/01/21 13:06:54;;;;;;;4.03;3.83;;;;;;;;;;5039517;28;20136;-89
2023/01/21 13:09:24;;;;;;;6.53;4.20;;;;;;;;;;5039175;28;20084;-90
2023/01/21 13:11:52;;;;;;;2.65;2.45;;;;;;;;;;5042117;28;20053;-90
2023/01/21 13:14:23;;;;;;;3.53;3.33;;;;;;;;;;5045581;28;20053;-91
2023/01/21 13:16:51;;;;;;;3.63;3.42;;;;;;;;;;5043806;28;20049;-89
2023/01/21 13:19:18;;;;;;;2.47;2.38;;;;;;;;;;5042604;28;20049;-89
2023/01/21 13:21:50;;;;;;;2.70;2.50;;;;;;;;;;5036053;28;20045;-90
2023/01/21 13:24:20;;;;;;;1.63;1.52;;;;;;;;;;5014136;28;20052;-89
2023/01/21 13:26:50;;;;;;;2.83;2.72;;;;;;;;;;5014861;28;20454;-90
2023/01/21 13:29:20;;;;;;;1.60;1.50;;;;;;;;;;5015026;28;20116;-90
2023/01/21 13:31:48;;;;;;;2.05;1.95;;;;;;;;;;5015253;28;20045;-91
2023/01/21 13:34:19;;;;;;;2.95;2.75;;;;;;;;;;5015667;28;20466;-91
2023/01/21 13:36:56;;;;;;;2.88;2.78;;;;;;;;;;5014845;28;20199;-90
2023/01/21 13:39:25;;;;;;;2.00;1.90;;;;;;;;;;5014710;28;20120;-88
2023/01/21 13:41:58;;;;;;;2.47;2.38;;;;;;;;;;5014295;28;20077;-90
2023/01/21 13:44:45;;;;;;;2.25;2.15;;;;;;;;;;5015181;28;20176;-90
2023/01/21 13:47:17;;;;;;;2.78;2.67;;;;;;;;;;5014589;28;20100;-90
2023/01/21 13:49:56;;;;;;;3.42;3.28;;;;;;;;;;5014294;28;20058;-90
2023/01/21 13:52:28;;;;;;;1.90;1.77;;;;;;;;;;5015168;28;20057;-91
2023/01/21 13:55:00;;;;;;;3.65;3.55;;;;;;;;;;5015157;28;20112;-91
2023/01/21 13:57:35;;;;;;;5.35;3.38;;;;;;;;;;5012537;28;20095;-90
2023/01/21 14:00:03;;;;;;;2.63;2.53;;;;;;;;;;5012625;28;20046;-91
2023/01/21 14:02:34;;;;;;;4.38;3.03;;;;;;;;;;5014469;28;20046;-90
2023/01/21 14:05:02;;;;;;;2.72;2.63;;;;;;;;;;5014957;28;20053;-90
2023/01/21 14:07:32;;;;;;;2.30;2.20;;;;;;;;;;5015034;28;20096;-90
2023/01/21 14:10:01;;;;;;;3.85;3.65;;;;;;;;;;5017929;28;20053;-90
2023/01/21 14:12:36;;;;;;;2.22;2.13;;;;;;;;;;5014988;28;20050;-91
2023/01/21 14:15:11;;;;;;;2.05;1.95;;;;;;;;;;5014384;28;20077;-90
2023/01/21 14:18:02;;;;;;;7.05;4.43;;;;;;;;;;5013662;28;20050;-91
2023/01/21 14:20:34;;;;;;;2.55;2.45;;;;;;;;;;5014523;28;20053;-90
2023/01/21 14:23:12;;;;;;;2.42;2.33;;;;;;;;;;5014255;28;20052;-90
2023/01/21 14:25:46;;;;;;;2.28;2.17;;;;;;;;;;5013617;28;20470;-90
2023/01/21 14:28:16;;;;;;;7.15;5.38;;;;;;;;;;5013932;28;20052;-90
2023/01/21 14:30:44;;;;;;;1.83;1.73;;;;;;;;;;5013849;28;20050;-90
2023/01/21 14:33:15;;;;;;;2.97;2.85;;;;;;;;;;5013446;28;20553;-90
2023/01/21 14:35:47;;;;;;;2.80;1.60;;;;;;;;;;5014382;28;20080;-92
2023/01/21 14:38:25;;;;;;;2.35;2.25;;;;;;;;;;5019808;28;20030;-91
2023/01/21 14:41:03;;;;;;;2.50;2.40;;;;;;;;;;5022672;28;20096;-90
2023/01/21 14:43:49;;;;;;;1.50;1.42;;;;;;;;;;5014551;28;20050;-90
2023/01/21 14:46:25;;;;;;;3.80;3.70;;;;;;;;;;5013020;28;20054;-91
2023/01/21 14:49:06;;;;;;;2.08;1.98;;;;;;;;;;5014314;28;20053;-91
2023/01/21 14:51:35;;;;;;;3.10;3.00;;;;;;;;;;5013940;28;20046;-90
2023/01/21 14:54:04;;;;;;;3.20;3.00;;;;;;;;;;5014318;28;20057;-90
2023/01/21 14:56:31;;;;;;;2.40;2.30;;;;;;;;;;5014256;28;20096;-90
2023/01/21 14:58:59;;;;;;;2.63;2.53;;;;;;;;;;5013773;28;20057;-91
2023/01/21 15:01:31;;;;;;;2.22;2.03;;;;;;;;;;5014468;28;20069;-90